Time;durP1;ratioP1;P1;durP2;ratioP2;P2;SDS_P1;SDS_P2;PMS_P1;PMS_P2;Temp;Humidity;BMP_temperature;BMP_pressure;BME280_temperature;BME280_humidity;BME280_pressure;Samples;Min_cycle;Max_cycle;Signal;HPM_P1;HPM_P2
2023/12/05 00:01:32;;;;;;;18.35;9.52;;;0.50;99.90;;;;;;5128086;27;20082;-62
2023/12/05 00:03:58;;;;;;;18.08;10.15;;;0.60;99.90;;;;;;5133213;27;20104;-62
2023/12/05 00:06:23;;;;;;;19.40;9.35;;;0.60;99.90;;;;;;5114517;27;20471;-62
2023/12/05 00:08:49;;;;;;;16.98;9.60;;;0.60;99.90;;;;;;5132462;27;20046;-62
2023/12/05 00:11:15;;;;;;;16.10;9.77;;;0.60;99.90;;;;;;5121825;27;20056;-62
2023/12/05 00:13:41;;;;;;;19.63;10.55;;;0.60;99.90;;;;;;5114510;27;20039;-62
2023/12/05 00:16:07;;;;;;;18.05;10.50;;;0.60;99.90;;;;;;5115706;27;20267;-62
2023/12/05 00:18:33;;;;;;;20.23;9.38;;;0.60;99.90;;;;;;5114422;27;20050;-62
2023/12/05 00:20:58;;;;;;;17.52;10.38;;;0.60;99.90;;;;;;5108880;27;20042;-62
2023/12/05 00:23:24;;;;;;;16.90;9.52;;;0.60;99.90;;;;;;5132313;27;20403;-62
2023/12/05 00:25:50;;;;;;;18.73;9.48;;;0.60;99.90;;;;;;5131525;27;20692;-62
2023/12/05 00:28:15;;;;;;;15.30;8.77;;;0.60;99.90;;;;;;5131985;27;20146;-62
2023/12/05 00:30:41;;;;;;;20.00;11.05;;;0.60;99.90;;;;;;5124200;27;20035;-62
2023/12/05 00:33:07;;;;;;;17.52;9.75;;;0.60;99.90;;;;;;5114770;27;20600;-62
2023/12/05 00:35:32;;;;;;;18.27;10.50;;;0.60;99.90;;;;;;5115249;27;20038;-62
2023/12/05 00:37:58;;;;;;;19.42;9.85;;;0.60;99.90;;;;;;5114684;27;20046;-62
2023/12/05 00:40:29;;;;;;;17.60;10.60;;;0.60;99.90;;;;;;5113613;27;20032;-61
2023/12/05 00:42:55;;;;;;;16.58;10.35;;;0.60;99.90;;;;;;5115339;28;20502;-61
2023/12/05 00:45:22;;;;;;;18.67;11.07;;;0.60;99.90;;;;;;5114806;28;20043;-61
2023/12/05 00:47:48;;;;;;;21.30;11.65;;;0.60;99.90;;;;;;5114409;28;20046;-62
2023/12/05 00:50:14;;;;;;;16.38;10.20;;;0.60;99.90;;;;;;5132029;27;20039;-62
2023/12/05 00:52:39;;;;;;;18.88;11.05;;;0.60;99.90;;;;;;5131997;27;20069;-62
2023/12/05 00:55:05;;;;;;;18.55;10.65;;;0.60;99.90;;;;;;5119715;28;20472;-62
2023/12/05 00:57:31;;;;;;;19.45;10.40;;;0.60;99.90;;;;;;5114354;27;20519;-62
2023/12/05 00:59:57;;;;;;;19.38;11.15;;;0.60;99.90;;;;;;5115196;28;20047;-62
2023/12/05 01:02:23;;;;;;;19.25;11.35;;;0.60;99.90;;;;;;5113702;28;20043;-62
2023/12/05 01:04:49;;;;;;;18.70;10.38;;;0.50;99.90;;;;;;5114825;28;20039;-62
2023/12/05 01:07:14;;;;;;;17.55;11.30;;;0.60;99.90;;;;;;5114753;28;20498;-62
2023/12/05 01:09:40;;;;;;;22.70;13.05;;;0.60;99.90;;;;;;5113616;28;20085;-62
2023/12/05 01:12:10;;;;;;;19.85;11.48;;;0.60;99.90;;;;;;5098048;28;20361;-62
2023/12/05 01:14:36;;;;;;;21.02;11.60;;;0.50;99.90;;;;;;5114862;28;20039;-62
2023/12/05 01:17:02;;;;;;;22.67;11.90;;;0.50;99.90;;;;;;5114296;28;20035;-62
2023/12/05 01:19:28;;;;;;;20.23;10.65;;;0.50;99.90;;;;;;5132730;28;20076;-62
2023/12/05 01:21:53;;;;;;;19.00;10.90;;;0.50;99.90;;;;;;5113693;28;20039;-62
2023/12/05 01:24:19;;;;;;;20.13;12.55;;;0.50;99.90;;;;;;5097450;28;20074;-61
2023/12/05 01:26:45;;;;;;;20.48;11.60;;;0.40;99.90;;;;;;5114623;28;20133;-62
2023/12/05 01:29:10;;;;;;;19.38;11.02;;;0.40;99.90;;;;;;5113632;28;20109;-62
2023/12/05 01:31:36;;;;;;;19.55;11.13;;;0.40;99.90;;;;;;5114298;28;20042;-62
2023/12/05 01:34:02;;;;;;;19.67;10.98;;;0.40;99.90;;;;;;5114651;28;20031;-62
2023/12/05 01:36:27;;;;;;;18.98;10.65;;;0.40;99.90;;;;;;5113815;28;20143;-62
2023/12/05 01:38:54;;;;;;;18.65;10.50;;;0.40;99.90;;;;;;5115658;28;20506;-62
2023/12/05 01:41:20;;;;;;;22.00;12.40;;;0.40;99.90;;;;;;5113920;28;20047;-62
2023/12/05 01:43:45;;;;;;;22.23;13.73;;;0.40;99.90;;;;;;5113604;28;20039;-62
2023/12/05 01:46:11;;;;;;;22.23;12.35;;;0.40;99.90;;;;;;5114409;28;20075;-62
2023/12/05 01:48:39;;;;;;;19.85;10.50;;;0.40;99.90;;;;;;5114349;27;20056;-62
2023/12/05 01:51:07;;;;;;;21.90;12.93;;;0.40;99.90;;;;;;5100669;27;20131;-62
2023/12/05 01:53:35;;;;;;;22.92;12.75;;;0.40;99.90;;;;;;5117969;27;20115;-62
2023/12/05 01:56:03;;;;;;;20.48;12.18;;;0.40;99.90;;;;;;5118168;27;20554;-62
2023/12/05 01:58:31;;;;;;;23.42;12.98;;;0.40;99.90;;;;;;5116924;27;20059;-62
2023/12/05 02:00:57;;;;;;;21.63;12.80;;;0.40;99.90;;;;;;5118075;27;20082;-61
2023/12/05 02:03:23;;;;;;;20.80;12.50;;;0.50;99.90;;;;;;5117984;27;20085;-62
2023/12/05 02:05:49;;;;;;;19.80;12.82;;;0.40;99.90;;;;;;5116929;27;20049;-62
2023/12/05 02:08:18;;;;;;;21.35;12.45;;;0.40;99.90;;;;;;5123779;27;20384;-62
2023/12/05 02:10:44;;;;;;;19.40;12.65;;;0.40;99.90;;;;;;5135646;27;20100;-61
2023/12/05 02:13:10;;;;;;;23.50;12.90;;;0.50;99.90;;;;;;5116800;27;20472;-62
2023/12/05 02:15:35;;;;;;;24.38;14.20;;;0.50;99.90;;;;;;5117505;27;20039;-62
2023/12/05 02:18:33;;;;;;;23.63;12.63;;;0.50;99.90;;;;;;5118224;27;20043;-62
2023/12/05 02:21:26;;;;;;;22.65;13.23;;;0.50;99.90;;;;;;5116736;27;20055;-62
2023/12/05 02:24:30;;;;;;;20.42;12.82;;;0.50;99.90;;;;;;5117817;27;20368;-62
2023/12/05 02:27:12;;;;;;;26.08;13.63;;;0.50;99.90;;;;;;5100786;27;20386;-62
2023/12/05 02:29:51;;;;;;;24.27;13.43;;;0.50;99.90;;;;;;5117196;27;20172;-62
2023/12/05 02:32:17;;;;;;;19.52;11.60;;;0.50;99.90;;;;;;5116448;27;20043;-61
2023/12/05 02:34:44;;;;;;;25.77;14.48;;;0.50;99.90;;;;;;5117116;27;20039;-62
2023/12/05 02:37:32;;;;;;;23.98;13.18;;;0.50;99.90;;;;;;5117107;27;20047;-62
2023/12/05 02:40:10;;;;;;;23.70;14.38;;;0.50;99.90;;;;;;5116430;27;20503;-62
2023/12/05 02:42:38;;;;;;;23.08;13.00;;;0.50;99.90;;;;;;5100238;27;20035;-62
2023/12/05 02:45:09;;;;;;;24.38;14.23;;;0.40;99.90;;;;;;5117677;27;20430;-61
2023/12/05 02:47:37;;;;;;;24.30;14.00;;;0.40;99.90;;;;;;5116206;27;20056;-62
2023/12/05 02:50:03;;;;;;;21.23;12.80;;;0.50;99.90;;;;;;5117209;27;20072;-62
2023/12/05 02:52:29;;;;;;;23.20;14.60;;;0.50;99.90;;;;;;5118080;27;20039;-62
2023/12/05 02:54:55;;;;;;;21.73;12.98;;;0.50;99.90;;;;;;5116446;27;20046;-62
2023/12/05 02:57:20;;;;;;;26.30;15.68;;;0.40;99.90;;;;;;5133712;27;20053;-62
2023/12/05 02:59:46;;;;;;;21.75;13.93;;;0.50;99.90;;;;;;5116456;27;20057;-62
2023/12/05 03:02:11;;;;;;;20.45;13.13;;;0.40;99.90;;;;;;5116441;27;20071;-62
2023/12/05 03:04:37;;;;;;;23.02;14.10;;;0.40;99.90;;;;;;5133731;27;20054;-62
2023/12/05 03:07:03;;;;;;;23.42;13.02;;;0.50;99.90;;;;;;5133970;27;20043;-62
2023/12/05 03:09:29;;;;;;;23.23;13.15;;;0.50;99.90;;;;;;5132990;27;20436;-62
2023/12/05 03:11:54;;;;;;;23.80;13.30;;;0.40;99.90;;;;;;5120566;27;20438;-62
2023/12/05 03:14:21;;;;;;;22.25;12.65;;;0.40;99.90;;;;;;5117094;27;20487;-62
2023/12/05 03:16:46;;;;;;;20.60;12.40;;;0.40;99.90;;;;;;5116377;27;20027;-62
2023/12/05 03:19:12;;;;;;;23.42;13.27;;;0.40;99.90;;;;;;5116490;27;20039;-62
2023/12/05 03:21:38;;;;;;;24.60;13.05;;;0.40;99.90;;;;;;5133898;27;20116;-62
2023/12/05 03:24:04;;;;;;;27.95;15.40;;;0.50;99.90;;;;;;5134820;27;20043;-62
2023/12/05 03:26:29;;;;;;;36.30;21.00;;;0.40;99.90;;;;;;5127261;27;20437;-62
2023/12/05 03:28:55;;;;;;;61.88;30.27;;;0.40;99.90;;;;;;5132909;27;20035;-62
2023/12/05 03:31:21;;;;;;;163.05;67.05;;;0.40;99.90;;;;;;5133217;27;20035;-62
2023/12/05 03:33:46;;;;;;;179.70;78.72;;;0.40;99.90;;;;;;5133062;27;20190;-62
2023/12/05 03:36:12;;;;;;;194.85;87.35;;;0.40;99.90;;;;;;5132375;27;20045;-62
2023/12/05 03:38:38;;;;;;;184.63;79.28;;;0.40;99.90;;;;;;5133053;27;20054;-62
2023/12/05 03:41:05;;;;;;;120.55;51.20;;;0.40;99.90;;;;;;5127271;27;20045;-62
2023/12/05 03:43:31;;;;;;;73.18;33.92;;;0.40;99.90;;;;;;5115043;27;20113;-62
2023/12/05 03:45:56;;;;;;;63.08;30.75;;;0.40;99.90;;;;;;5098893;27;20172;-62
2023/12/05 03:48:22;;;;;;;133.15;59.40;;;0.40;99.90;;;;;;5098871;27;20460;-62
2023/12/05 03:50:48;;;;;;;155.57;69.78;;;0.40;99.90;;;;;;5115224;27;20056;-62
2023/12/05 03:53:13;;;;;;;41.95;20.92;;;0.40;99.90;;;;;;5115742;27;20376;-62
2023/12/05 03:55:39;;;;;;;60.00;33.08;;;0.40;99.90;;;;;;5101661;27;20031;-62
2023/12/05 03:58:05;;;;;;;98.40;54.30;;;0.40;99.90;;;;;;5115569;27;20055;-62
2023/12/05 04:00:30;;;;;;;50.67;28.83;;;0.50;99.90;;;;;;5130381;27;20038;-62
2023/12/05 04:02:56;;;;;;;39.00;22.67;;;0.40;99.90;;;;;;5115808;27;20126;-62
2023/12/05 04:05:22;;;;;;;31.45;17.65;;;0.40;99.90;;;;;;5114892;27;20049;-62
2023/12/05 04:07:47;;;;;;;30.45;16.90;;;0.40;99.90;;;;;;5115384;27;20504;-62
2023/12/05 04:10:13;;;;;;;28.38;16.63;;;0.50;99.90;;;;;;5115080;27;20043;-62
2023/12/05 04:12:40;;;;;;;27.90;18.45;;;0.50;99.90;;;;;;5114056;27;20035;-62
2023/12/05 04:15:07;;;;;;;42.60;24.58;;;0.40;99.90;;;;;;5115501;27;20043;-62
2023/12/05 04:17:32;;;;;;;28.77;16.73;;;0.40;99.90;;;;;;5114936;27;20084;-62
2023/12/05 04:19:58;;;;;;;27.88;16.27;;;0.40;99.90;;;;;;5115014;27;20047;-61
2023/12/05 04:22:23;;;;;;;30.30;18.92;;;0.40;99.90;;;;;;5115117;27;20134;-62
2023/12/05 04:24:49;;;;;;;27.17;16.83;;;0.50;99.90;;;;;;5114502;27;20150;-62
2023/12/05 04:27:16;;;;;;;24.80;15.65;;;0.40;99.90;;;;;;5129769;27;20047;-62
2023/12/05 04:29:47;;;;;;;25.10;14.38;;;0.40;99.90;;;;;;5132209;27;20047;-61
2023/12/05 04:32:13;;;;;;;26.27;15.15;;;0.50;99.90;;;;;;5114310;27;20114;-62
2023/12/05 04:34:41;;;;;;;29.50;17.75;;;0.40;99.90;;;;;;5132509;27;20131;-62
2023/12/05 04:37:08;;;;;;;24.58;14.13;;;0.40;99.90;;;;;;5115206;27;20502;-62
2023/12/05 04:39:34;;;;;;;27.30;17.60;;;0.40;99.90;;;;;;5131079;27;20052;-61
2023/12/05 04:41:59;;;;;;;26.70;15.02;;;0.40;99.90;;;;;;5119420;27;20051;-61
2023/12/05 04:44:27;;;;;;;24.95;15.57;;;0.40;99.90;;;;;;5114775;27;20070;-62
2023/12/05 04:46:53;;;;;;;27.05;16.23;;;0.40;99.90;;;;;;5114142;27;20464;-62
2023/12/05 04:49:19;;;;;;;25.15;13.63;;;0.50;99.90;;;;;;5114648;27;20126;-62
2023/12/05 04:51:44;;;;;;;24.13;15.02;;;0.40;99.90;;;;;;5114990;27;20074;-62
2023/12/05 04:54:10;;;;;;;27.35;15.10;;;0.40;99.90;;;;;;5113918;27;20042;-62
2023/12/05 04:56:36;;;;;;;28.80;16.77;;;0.40;99.90;;;;;;5115835;27;20049;-62
2023/12/05 04:59:02;;;;;;;25.40;14.95;;;0.40;99.90;;;;;;5094567;28;20056;-62
2023/12/05 05:01:27;;;;;;;25.50;15.57;;;0.40;99.90;;;;;;5111597;28;20047;-61
2023/12/05 05:03:53;;;;;;;23.50;13.57;;;0.40;99.90;;;;;;5111155;28;20039;-62
2023/12/05 05:06:19;;;;;;;27.42;17.38;;;0.40;99.90;;;;;;5111290;28;20386;-61
2023/12/05 05:08:45;;;;;;;26.20;15.75;;;0.40;99.90;;;;;;5093244;28;20044;-62
2023/12/05 05:11:11;;;;;;;23.23;15.02;;;0.40;99.90;;;;;;5111373;28;20369;-62
2023/12/05 05:13:36;;;;;;;24.10;14.77;;;0.50;99.90;;;;;;5094098;28;20039;-62
2023/12/05 05:16:02;;;;;;;24.90;14.77;;;0.40;99.90;;;;;;5110606;28;20115;-62
2023/12/05 05:18:28;;;;;;;26.65;15.40;;;0.40;99.90;;;;;;5110851;28;20089;-62
2023/12/05 05:20:54;;;;;;;25.13;14.25;;;0.40;99.90;;;;;;5112240;28;20035;-61
2023/12/05 05:23:19;;;;;;;23.08;14.38;;;0.40;99.90;;;;;;5095339;28;20057;-61
2023/12/05 05:25:46;;;;;;;22.90;14.93;;;0.40;99.90;;;;;;5115031;28;20127;-62
2023/12/05 05:28:12;;;;;;;29.02;15.88;;;0.30;99.90;;;;;;5114181;28;20122;-62
2023/12/05 05:30:38;;;;;;;23.77;14.25;;;0.30;99.90;;;;;;5114957;28;20122;-62
2023/12/05 05:33:03;;;;;;;30.65;18.10;;;0.40;99.90;;;;;;5115228;28;20158;-61
2023/12/05 05:35:29;;;;;;;25.15;14.45;;;0.40;99.90;;;;;;5114260;28;20122;-61
2023/12/05 05:37:54;;;;;;;24.48;15.10;;;0.40;99.90;;;;;;5115302;28;20039;-61
2023/12/05 05:40:20;;;;;;;28.50;16.65;;;0.40;99.90;;;;;;5097759;28;20035;-61
2023/12/05 05:42:46;;;;;;;27.58;15.57;;;0.40;99.90;;;;;;5113976;28;20092;-61
2023/12/05 05:45:12;;;;;;;26.58;15.10;;;0.40;99.90;;;;;;5114807;28;20035;-61
2023/12/05 05:47:37;;;;;;;23.77;14.95;;;0.40;99.90;;;;;;5097843;28;20051;-61
2023/12/05 05:50:04;;;;;;;23.73;14.48;;;0.40;99.90;;;;;;5097326;28;20040;-61
2023/12/05 05:52:30;;;;;;;25.88;17.05;;;0.30;99.90;;;;;;5114448;28;20058;-61
2023/12/05 05:54:55;;;;;;;26.85;17.85;;;0.40;99.90;;;;;;5114993;28;20043;-62
2023/12/05 05:57:21;;;;;;;32.72;20.13;;;0.40;99.90;;;;;;5096617;28;20039;-61
2023/12/05 05:59:48;;;;;;;24.30;14.70;;;0.40;99.90;;;;;;5114139;28;20480;-61
2023/12/05 06:02:14;;;;;;;24.65;14.48;;;0.40;99.90;;;;;;5097211;28;20097;-61
2023/12/05 06:04:40;;;;;;;28.65;20.20;;;0.40;99.90;;;;;;5114905;28;20035;-61
2023/12/05 06:07:07;;;;;;;28.00;15.70;;;0.40;99.90;;;;;;5114703;28;20043;-61
2023/12/05 06:09:33;;;;;;;26.50;16.25;;;0.40;99.90;;;;;;5114399;28;20040;-61
2023/12/05 06:11:59;;;;;;;27.30;16.65;;;0.30;99.90;;;;;;5113468;28;20031;-61
2023/12/05 06:14:24;;;;;;;25.10;14.90;;;0.40;99.90;;;;;;5115453;27;20081;-61
2023/12/05 06:16:50;;;;;;;25.80;15.48;;;0.30;99.90;;;;;;5114080;28;20114;-62
2023/12/05 06:19:16;;;;;;;21.20;14.00;;;0.30;99.90;;;;;;5113436;28;20119;-61
2023/12/05 06:21:42;;;;;;;26.75;15.40;;;0.30;99.90;;;;;;5114062;28;20050;-61
2023/12/05 06:24:08;;;;;;;26.02;14.55;;;0.40;99.90;;;;;;5115280;28;20416;-62
2023/12/05 06:26:34;;;;;;;25.55;14.30;;;0.30;99.90;;;;;;5112943;28;20028;-61
2023/12/05 06:29:04;;;;;;;23.10;13.55;;;0.40;99.90;;;;;;5114051;28;20114;-61
2023/12/05 06:31:29;;;;;;;24.25;13.80;;;0.30;99.90;;;;;;5112871;28;20039;-61
2023/12/05 06:33:55;;;;;;;22.35;13.40;;;0.40;99.90;;;;;;5114167;28;20040;-65
2023/12/05 06:36:21;;;;;;;46.50;26.02;;;0.40;99.90;;;;;;5113070;28;20047;-65
2023/12/05 06:38:46;;;;;;;27.70;14.50;;;0.30;99.90;;;;;;5113082;28;20404;-65
2023/12/05 06:41:12;;;;;;;28.40;18.63;;;0.40;99.90;;;;;;5113432;28;20122;-65
2023/12/05 06:43:38;;;;;;;30.30;17.67;;;0.30;99.90;;;;;;5113757;28;20096;-65
2023/12/05 06:46:03;;;;;;;26.05;15.18;;;0.30;99.90;;;;;;5113409;28;20039;-65
2023/12/05 06:48:29;;;;;;;25.05;13.20;;;0.30;99.90;;;;;;5113471;28;20035;-65
2023/12/05 06:50:55;;;;;;;28.02;15.80;;;0.30;99.90;;;;;;5096909;28;20035;-65
2023/12/05 06:53:20;;;;;;;27.15;15.10;;;0.30;99.90;;;;;;5112743;28;20063;-65
2023/12/05 06:55:49;;;;;;;26.55;13.65;;;0.30;99.90;;;;;;5113063;28;20092;-65
2023/12/05 06:58:15;;;;;;;26.48;15.43;;;0.30;99.90;;;;;;5113010;28;20056;-65
2023/12/05 07:00:40;;;;;;;26.77;15.68;;;0.30;99.90;;;;;;5112760;28;20070;-65
2023/12/05 07:03:06;;;;;;;26.40;15.70;;;0.30;99.90;;;;;;5113697;28;20492;-65
2023/12/05 07:05:32;;;;;;;24.38;13.77;;;0.20;99.90;;;;;;5112949;28;20046;-64
2023/12/05 07:07:57;;;;;;;28.35;16.85;;;0.30;99.90;;;;;;5112501;28;20069;-64
2023/12/05 07:10:23;;;;;;;32.08;18.15;;;0.30;99.90;;;;;;5112442;28;20032;-65
2023/12/05 07:12:49;;;;;;;27.45;16.15;;;0.30;99.90;;;;;;5095944;28;20043;-65
2023/12/05 07:15:15;;;;;;;22.83;12.65;;;0.30;99.90;;;;;;5112777;28;20047;-65
2023/12/05 07:17:40;;;;;;;25.42;15.70;;;0.30;99.90;;;;;;5096188;28;20051;-65
2023/12/05 07:20:06;;;;;;;24.52;15.55;;;0.20;99.90;;;;;;5113400;28;20050;-65
2023/12/05 07:22:33;;;;;;;29.25;17.08;;;0.20;99.90;;;;;;5112404;28;20382;-65
2023/12/05 07:24:59;;;;;;;24.90;14.27;;;0.20;99.90;;;;;;5113175;28;20088;-65
2023/12/05 07:27:25;;;;;;;30.40;15.88;;;0.30;99.90;;;;;;5112702;28;20047;-66
2023/12/05 07:29:50;;;;;;;27.13;14.70;;;0.30;99.90;;;;;;5112294;28;20048;-65
2023/12/05 07:32:16;;;;;;;34.05;17.33;;;0.20;99.90;;;;;;5112801;28;20122;-66
2023/12/05 07:34:42;;;;;;;35.03;21.10;;;0.30;99.90;;;;;;5111792;28;20067;-66
2023/12/05 07:37:08;;;;;;;31.20;16.30;;;0.20;99.90;;;;;;5112792;28;20465;-66
2023/12/05 07:39:34;;;;;;;27.17;14.90;;;0.30;99.90;;;;;;5112637;28;20078;-66
2023/12/05 07:42:00;;;;;;;24.52;13.95;;;0.30;99.90;;;;;;5093784;28;20039;-65
2023/12/05 07:44:27;;;;;;;24.92;13.50;;;0.30;99.90;;;;;;5112638;28;20043;-65
2023/12/05 07:46:52;;;;;;;24.48;13.77;;;0.30;99.90;;;;;;5094967;28;20044;-67
2023/12/05 07:49:18;;;;;;;22.98;13.65;;;0.30;99.90;;;;;;5102695;28;20054;-65
2023/12/05 07:51:44;;;;;;;25.27;14.60;;;0.30;99.90;;;;;;5109890;28;20135;-65
2023/12/05 07:54:09;;;;;;;25.92;14.13;;;0.30;99.90;;;;;;5109510;28;20044;-65
2023/12/05 07:56:35;;;;;;;22.73;13.55;;;0.40;99.90;;;;;;5110151;28;20031;-65
2023/12/05 07:59:01;;;;;;;22.33;12.77;;;0.30;99.90;;;;;;5113799;27;20056;-65
2023/12/05 08:01:27;;;;;;;24.63;14.18;;;0.40;99.90;;;;;;5126105;27;20043;-65
2023/12/05 08:03:53;;;;;;;25.42;13.98;;;0.30;99.90;;;;;;5107210;28;20042;-65
2023/12/05 08:06:19;;;;;;;32.95;16.98;;;0.30;99.90;;;;;;5109301;28;20094;-65
2023/12/05 08:08:44;;;;;;;27.00;15.10;;;0.40;99.90;;;;;;5109130;28;20493;-64
2023/12/05 08:11:11;;;;;;;29.35;16.83;;;0.40;99.90;;;;;;5091152;28;20059;-65
2023/12/05 08:13:37;;;;;;;32.25;17.85;;;0.40;99.90;;;;;;5109493;28;20514;-65
2023/12/05 08:16:03;;;;;;;33.67;16.55;;;0.40;99.90;;;;;;5107980;28;20096;-65
2023/12/05 08:18:28;;;;;;;24.73;14.18;;;0.40;99.90;;;;;;5108798;28;20093;-65
2023/12/05 08:20:54;;;;;;;26.83;16.30;;;0.40;99.90;;;;;;5092446;28;20047;-65
2023/12/05 08:23:20;;;;;;;29.83;16.65;;;0.40;99.90;;;;;;5109097;28;20913;-65
2023/12/05 08:25:45;;;;;;;28.60;15.10;;;0.50;99.90;;;;;;5091740;28;20047;-65
2023/12/05 08:28:11;;;;;;;20.05;12.15;;;0.50;99.90;;;;;;5106300;28;20048;-65
2023/12/05 08:30:37;;;;;;;25.05;13.45;;;0.60;99.90;;;;;;5106597;28;20028;-65
2023/12/05 08:33:05;;;;;;;27.40;15.98;;;0.60;99.90;;;;;;5107546;28;20112;-65
2023/12/05 08:35:31;;;;;;;22.33;14.55;;;0.60;99.90;;;;;;5106455;28;20036;-65
2023/12/05 08:37:57;;;;;;;23.42;13.57;;;0.60;99.90;;;;;;5107595;28;20040;-65
2023/12/05 08:40:23;;;;;;;22.98;12.15;;;0.60;99.90;;;;;;5108425;28;20054;-65
2023/12/05 08:42:49;;;;;;;22.10;13.73;;;0.60;99.90;;;;;;5107954;28;20499;-65
2023/12/05 08:45:14;;;;;;;26.13;14.15;;;0.70;99.90;;;;;;5106907;28;20038;-65
2023/12/05 08:47:41;;;;;;;22.10;12.95;;;0.70;99.90;;;;;;5108313;28;20078;-65
2023/12/05 08:50:07;;;;;;;24.00;13.13;;;0.70;99.90;;;;;;5108653;28;20043;-65
2023/12/05 08:52:34;;;;;;;28.90;14.82;;;0.80;99.90;;;;;;5107619;28;20066;-65
2023/12/05 08:55:00;;;;;;;30.48;18.33;;;0.80;99.90;;;;;;5108917;28;20189;-65
2023/12/05 08:57:26;;;;;;;40.28;24.75;;;0.80;99.90;;;;;;5107916;28;20079;-65
2023/12/05 08:59:52;;;;;;;77.60;34.75;;;0.80;99.90;;;;;;5107317;28;20048;-64
2023/12/05 09:02:21;;;;;;;109.82;52.10;;;0.80;99.90;;;;;;5108272;28;20043;-64
2023/12/05 09:04:47;;;;;;;69.90;33.17;;;0.80;99.90;;;;;;5106224;28;20044;-64
2023/12/05 09:07:12;;;;;;;64.63;33.00;;;0.80;99.90;;;;;;5107466;28;20047;-64
2023/12/05 09:09:41;;;;;;;38.97;22.02;;;0.80;99.90;;;;;;5107651;28;20032;-65
2023/12/05 09:12:07;;;;;;;39.33;23.05;;;0.80;99.90;;;;;;5108911;28;20054;-64
2023/12/05 09:14:34;;;;;;;24.08;14.63;;;0.80;99.90;;;;;;5107183;28;20044;-64
2023/12/05 09:17:01;;;;;;;33.15;19.50;;;0.80;99.90;;;;;;5109114;28;20104;-64
2023/12/05 09:19:26;;;;;;;24.23;14.65;;;0.90;99.90;;;;;;5108778;28;20047;-64
2023/12/05 09:21:52;;;;;;;21.15;13.85;;;0.80;99.90;;;;;;5107782;28;20089;-64
2023/12/05 09:24:18;;;;;;;23.20;12.73;;;0.80;99.90;;;;;;5108300;28;20686;-64
2023/12/05 09:26:44;;;;;;;22.88;14.20;;;0.70;99.90;;;;;;5108194;28;20042;-64
2023/12/05 09:29:10;;;;;;;23.13;12.98;;;0.70;99.90;;;;;;5090222;28;20036;-64
2023/12/05 09:31:36;;;;;;;21.45;12.85;;;0.70;99.90;;;;;;5108570;28;20036;-64
2023/12/05 09:34:04;;;;;;;24.65;15.27;;;0.70;99.90;;;;;;5108436;28;20040;-64
2023/12/05 09:36:30;;;;;;;22.00;12.77;;;0.70;99.90;;;;;;5105860;28;20077;-64
2023/12/05 09:38:56;;;;;;;21.80;12.95;;;0.70;99.90;;;;;;5101622;28;20093;-64
2023/12/05 09:41:23;;;;;;;27.00;14.38;;;0.70;99.90;;;;;;5093412;28;20036;-64
2023/12/05 09:43:51;;;;;;;24.80;15.40;;;0.60;99.90;;;;;;5093904;28;20035;-64
2023/12/05 09:46:19;;;;;;;27.58;15.38;;;0.70;99.90;;;;;;5107086;28;20043;-64
2023/12/05 09:48:51;;;;;;;25.60;15.50;;;0.60;99.90;;;;;;5106964;28;20555;-64
2023/12/05 09:51:17;;;;;;;24.83;14.23;;;0.70;99.90;;;;;;5107439;28;20043;-64
2023/12/05 09:53:48;;;;;;;23.33;14.20;;;0.70;99.90;;;;;;5090550;28;20088;-64
2023/12/05 09:56:14;;;;;;;23.92;14.23;;;0.70;99.90;;;;;;5106349;28;20040;-65
2023/12/05 09:58:43;;;;;;;24.92;13.95;;;0.70;99.90;;;;;;5099146;28;20113;-64
2023/12/05 10:01:12;;;;;;;21.02;13.38;;;0.60;99.90;;;;;;5107863;28;20392;-61
2023/12/05 10:03:40;;;;;;;24.83;16.40;;;0.70;99.90;;;;;;5102535;28;20783;-62
2023/12/05 10:06:06;;;;;;;24.55;13.13;;;0.60;99.90;;;;;;5116655;28;20404;-62
2023/12/05 10:08:33;;;;;;;24.20;13.52;;;0.60;99.90;;;;;;5107401;28;20512;-62
2023/12/05 10:11:01;;;;;;;27.00;16.20;;;0.60;99.90;;;;;;5112803;27;20058;-61
2023/12/05 10:13:28;;;;;;;22.10;13.07;;;0.60;99.90;;;;;;5098014;28;20131;-61
2023/12/05 10:15:55;;;;;;;28.67;15.85;;;0.60;99.90;;;;;;5110013;28;20040;-62
2023/12/05 10:18:21;;;;;;;25.98;14.15;;;0.60;99.90;;;;;;5109568;28;20126;-61
2023/12/05 10:20:47;;;;;;;34.30;19.27;;;0.60;99.90;;;;;;5093953;28;20063;-61
2023/12/05 10:23:13;;;;;;;33.67;21.02;;;0.60;99.90;;;;;;5120405;27;20563;-62
2023/12/05 10:25:42;;;;;;;24.50;15.25;;;0.60;99.90;;;;;;5121496;27;20103;-62
2023/12/05 10:28:08;;;;;;;25.40;15.52;;;0.60;99.90;;;;;;5110249;28;20056;-62
2023/12/05 10:30:37;;;;;;;23.95;13.93;;;0.60;99.90;;;;;;5110117;28;20138;-62
2023/12/05 10:33:09;;;;;;;23.08;14.52;;;0.60;99.90;;;;;;5111131;28;20043;-62
2023/12/05 10:35:35;;;;;;;23.83;14.90;;;0.60;99.90;;;;;;5110171;28;20040;-62
2023/12/05 10:38:08;;;;;;;21.63;13.55;;;0.60;99.90;;;;;;5110398;28;20054;-62
2023/12/05 10:40:55;;;;;;;20.75;12.70;;;0.70;99.90;;;;;;5111439;28;20038;-61
2023/12/05 10:43:26;;;;;;;24.00;14.10;;;0.70;99.90;;;;;;5111048;28;20090;-62
2023/12/05 10:45:54;;;;;;;23.83;14.18;;;0.70;99.90;;;;;;5109161;28;20477;-62
2023/12/05 10:48:23;;;;;;;23.30;14.52;;;0.70;99.90;;;;;;5106937;27;20040;-62
2023/12/05 10:50:51;;;;;;;22.70;13.32;;;0.80;99.90;;;;;;5096429;28;20035;-62
2023/12/05 10:53:17;;;;;;;21.95;13.07;;;0.80;99.90;;;;;;5112691;27;20039;-62
2023/12/05 10:55:43;;;;;;;24.02;13.30;;;0.80;99.90;;;;;;5113051;28;20035;-63
2023/12/05 10:58:09;;;;;;;22.80;13.32;;;0.80;99.90;;;;;;5113607;28;20055;-62
2023/12/05 11:00:39;;;;;;;20.13;12.50;;;0.80;99.90;;;;;;5112859;28;20101;-63
2023/12/05 11:03:05;;;;;;;23.65;13.25;;;0.80;99.90;;;;;;5095754;28;20040;-63
2023/12/05 11:05:33;;;;;;;21.33;12.65;;;0.90;99.90;;;;;;5112846;28;20496;-63
2023/12/05 11:07:59;;;;;;;24.48;13.25;;;0.90;99.90;;;;;;5113795;28;20471;-62
2023/12/05 11:10:29;;;;;;;21.38;12.82;;;0.90;99.90;;;;;;5113276;28;20035;-62
2023/12/05 11:12:56;;;;;;;26.70;14.68;;;1.00;99.90;;;;;;5112279;28;20793;-63
2023/12/05 11:15:36;;;;;;;23.15;13.77;;;1.00;99.90;;;;;;5115907;27;20439;-63
2023/12/05 11:18:08;;;;;;;25.25;15.18;;;1.00;99.90;;;;;;5112528;28;20059;-63
2023/12/05 11:20:53;;;;;;;23.45;12.25;;;1.00;99.90;;;;;;5111667;28;20036;-63
2023/12/05 11:23:49;;;;;;;21.67;12.90;;;1.00;99.90;;;;;;5112741;28;20063;-63
2023/12/05 11:26:14;;;;;;;;;;;0.90;99.90;;;;;;5092184;28;20043;-63
2023/12/05 11:28:59;;;;;;;21.15;12.27;;;1.00;99.90;;;;;;5111230;28;19920;-63
2023/12/05 11:31:30;;;;;;;21.23;12.93;;;1.00;99.90;;;;;;5112501;28;20500;-63
2023/12/05 11:34:11;;;;;;;20.13;12.98;;;1.00;99.90;;;;;;5111526;28;20449;-63
2023/12/05 11:36:45;;;;;;;25.50;13.13;;;1.00;99.90;;;;;;5093168;27;20039;-63
2023/12/05 11:39:12;;;;;;;24.67;15.80;;;1.00;99.90;;;;;;5110011;28;20039;-63
2023/12/05 11:41:38;;;;;;;22.80;13.52;;;1.00;99.90;;;;;;5092246;28;20052;-63
2023/12/05 11:44:13;;;;;;;23.25;13.95;;;1.00;99.90;;;;;;5109916;28;20051;-63
2023/12/05 11:46:43;;;;;;;23.73;14.50;;;1.10;99.90;;;;;;5109553;28;20480;-63
2023/12/05 11:49:08;;;;;;;26.00;15.55;;;1.10;99.90;;;;;;5108420;28;20047;-62
2023/12/05 11:51:36;;;;;;;23.83;13.57;;;1.10;99.90;;;;;;5109398;28;20043;-62
2023/12/05 11:54:06;;;;;;;25.02;14.27;;;1.10;99.90;;;;;;5090900;28;20527;-62
2023/12/05 11:56:32;;;;;;;27.30;15.70;;;1.10;99.90;;;;;;5108549;28;20040;-63
2023/12/05 11:59:20;;;;;;;23.88;14.48;;;1.10;99.90;;;;;;5109206;28;20059;-63
2023/12/05 12:01:48;;;;;;;25.02;14.40;;;1.00;99.90;;;;;;5088539;28;20089;-63
2023/12/05 12:04:22;;;;;;;26.20;13.80;;;1.10;99.90;;;;;;5096584;28;20448;-63
2023/12/05 12:06:52;;;;;;;32.65;17.95;;;1.10;99.90;;;;;;5092930;28;20047;-63
2023/12/05 12:09:18;;;;;;;23.48;14.55;;;1.10;99.90;;;;;;5109019;28;20047;-63
2023/12/05 12:11:44;;;;;;;24.05;14.07;;;1.10;99.90;;;;;;5109621;28;20123;-63
2023/12/05 12:14:14;;;;;;;26.02;15.38;;;1.10;99.90;;;;;;5092218;28;20082;-62
2023/12/05 12:16:41;;;;;;;27.27;15.10;;;1.10;99.90;;;;;;5109042;28;20467;-63
2023/12/05 12:19:11;;;;;;;26.00;15.25;;;1.10;99.90;;;;;;5109741;28;20047;-63
2023/12/05 12:21:44;;;;;;;24.25;14.88;;;1.10;99.90;;;;;;5108882;28;20082;-63
2023/12/05 12:24:24;;;;;;;24.00;14.35;;;1.20;99.90;;;;;;5108530;28;20054;-63
2023/12/05 12:26:57;;;;;;;21.63;14.23;;;1.10;99.90;;;;;;5109344;28;20131;-63
2023/12/05 12:29:24;;;;;;;25.48;14.73;;;1.20;99.90;;;;;;5092150;28;20534;-63
2023/12/05 12:31:52;;;;;;;26.00;15.05;;;1.10;99.90;;;;;;5108381;28;20559;-63
2023/12/05 12:34:27;;;;;;;27.20;15.30;;;1.20;99.90;;;;;;5108720;28;20096;-63
2023/12/05 12:36:53;;;;;;;26.15;15.50;;;1.20;99.90;;;;;;5091928;28;20096;-64
2023/12/05 12:39:20;;;;;;;25.38;14.02;;;1.30;99.90;;;;;;5108251;28;20047;-64